sensor_id;sensor_type;location;lat;lon;timestamp;pressure;altitude;pressure_sealevel;temperature;humidity
58243;BME280;50118;53.232;8.252;2023-03-13T00:00:50;100045.78;;;5.45;100.00
58243;BME280;50118;53.232;8.252;2023-03-13T00:03:16;100040.81;;;5.51;100.00
58243;BME280;50118;53.232;8.252;2023-03-13T00:05:41;100030.38;;;5.50;100.00
58243;BME280;50118;53.232;8.252;2023-03-13T00:08:07;100028.91;;;5.57;100.00
58243;BME280;50118;53.232;8.252;2023-03-13T00:10:35;100031.13;;;5.61;100.00
58243;BME280;50118;53.232;8.252;2023-03-13T00:13:01;100023.66;;;5.67;100.00
58243;BME280;50118;53.232;8.252;2023-03-13T00:15:26;100020.88;;;5.68;100.00
58243;BME280;50118;53.232;8.252;2023-03-13T00:17:52;100015.16;;;5.63;100.00
58243;BME280;50118;53.232;8.252;2023-03-13T00:20:17;100008.59;;;5.57;100.00
58243;BME280;50118;53.232;8.252;2023-03-13T00:22:43;100003.06;;;5.60;100.00
58243;BME280;50118;53.232;8.252;2023-03-13T00:25:08;100010.88;;;5.62;100.00
58243;BME280;50118;53.232;8.252;2023-03-13T00:27:34;100000.00;;;5.65;100.00
58243;BME280;50118;53.232;8.252;2023-03-13T00:29:59;100000.59;;;5.69;100.00
58243;BME280;50118;53.232;8.252;2023-03-13T00:32:25;99996.97;;;5.70;100.00
58243;BME280;50118;53.232;8.252;2023-03-13T00:34:50;99991.69;;;5.70;100.00
58243;BME280;50118;53.232;8.252;2023-03-13T00:37:15;99986.41;;;5.70;100.00
58243;BME280;50118;53.232;8.252;2023-03-13T00:39:41;99980.59;;;5.76;100.00
58243;BME280;50118;53.232;8.252;2023-03-13T00:42:06;99971.44;;;5.80;100.00
58243;BME280;50118;53.232;8.252;2023-03-13T00:44:32;99977.84;;;5.77;100.00
58243;BME280;50118;53.232;8.252;2023-03-13T00:46:57;99970.59;;;5.79;100.00
58243;BME280;50118;53.232;8.252;2023-03-13T00:49:23;99964.75;;;5.76;100.00
58243;BME280;50118;53.232;8.252;2023-03-13T00:51:48;99957.53;;;5.78;100.00
58243;BME280;50118;53.232;8.252;2023-03-13T00:54:14;99947.47;;;5.72;100.00
58243;BME280;50118;53.232;8.252;2023-03-13T00:56:39;99949.03;;;5.74;100.00
58243;BME280;50118;53.232;8.252;2023-03-13T00:59:05;99947.22;;;5.75;100.00
58243;BME280;50118;53.232;8.252;2023-03-13T01:01:32;99937.78;;;5.82;100.00
58243;BME280;50118;53.232;8.252;2023-03-13T01:04:01;99925.53;;;5.81;100.00
58243;BME280;50118;53.232;8.252;2023-03-13T01:06:28;99926.75;;;5.77;100.00
58243;BME280;50118;53.232;8.252;2023-03-13T01:08:54;99920.94;;;5.83;100.00
58243;BME280;50118;53.232;8.252;2023-03-13T01:11:25;99902.44;;;5.83;100.00
58243;BME280;50118;53.232;8.252;2023-03-13T01:13:56;99905.25;;;5.91;100.00
58243;BME280;50118;53.232;8.252;2023-03-13T01:16:22;99894.38;;;5.85;100.00
58243;BME280;50118;53.232;8.252;2023-03-13T01:18:51;99885.19;;;5.79;100.00
58243;BME280;50118;53.232;8.252;2023-03-13T01:21:18;99874.91;;;5.76;100.00
58243;BME280;50118;53.232;8.252;2023-03-13T01:23:44;99874.34;;;5.72;100.00
58243;BME280;50118;53.232;8.252;2023-03-13T01:26:10;99873.38;;;5.83;100.00
58243;BME280;50118;53.232;8.252;2023-03-13T01:28:37;99858.91;;;5.87;100.00
58243;BME280;50118;53.232;8.252;2023-03-13T01:31:13;99855.72;;;5.84;100.00
58243;BME280;50118;53.232;8.252;2023-03-13T01:33:39;99849.03;;;5.79;100.00
58243;BME280;50118;53.232;8.252;2023-03-13T01:36:05;99843.19;;;5.76;100.00
58243;BME280;50118;53.232;8.252;2023-03-13T01:38:30;99838.47;;;5.79;100.00
58243;BME280;50118;53.232;8.252;2023-03-13T01:40:56;99831.19;;;5.72;100.00
58243;BME280;50118;53.232;8.252;2023-03-13T01:43:24;99821.19;;;5.66;100.00
58243;BME280;50118;53.232;8.252;2023-03-13T01:45:59;99802.28;;;5.70;100.00
58243;BME280;50118;53.232;8.252;2023-03-13T01:50:52;99803.13;;;5.80;100.00
58243;BME280;50118;53.232;8.252;2023-03-13T01:53:18;99802.56;;;5.77;100.00
58243;BME280;50118;53.232;8.252;2023-03-13T01:55:43;99792.00;;;5.77;100.00
58243;BME280;50118;53.232;8.252;2023-03-13T01:58:09;99785.47;;;5.81;100.00
58243;BME280;50118;53.232;8.252;2023-03-13T02:00:35;99774.75;;;5.83;100.00
58243;BME280;50118;53.232;8.252;2023-03-13T02:03:10;99763.63;;;5.79;100.00
58243;BME280;50118;53.232;8.252;2023-03-13T02:05:37;99765.72;;;5.85;100.00
58243;BME280;50118;53.232;8.252;2023-03-13T02:08:07;99747.47;;;5.82;100.00
58243;BME280;50118;53.232;8.252;2023-03-13T02:10:39;99755.81;;;5.87;100.00
58243;BME280;50118;53.232;8.252;2023-03-13T02:13:06;99744.84;;;5.82;100.00
58243;BME280;50118;53.232;8.252;2023-03-13T02:15:32;99738.88;;;5.80;100.00
58243;BME280;50118;53.232;8.252;2023-03-13T02:17:58;99726.34;;;5.82;100.00
58243;BME280;50118;53.232;8.252;2023-03-13T02:20:25;99719.41;;;5.91;100.00
58243;BME280;50118;53.232;8.252;2023-03-13T02:25:46;99702.97;;;5.87;100.00
58243;BME280;50118;53.232;8.252;2023-03-13T02:28:16;99696.06;;;5.96;100.00
58243;BME280;50118;53.232;8.252;2023-03-13T02:30:44;99687.97;;;5.97;100.00
58243;BME280;50118;53.232;8.252;2023-03-13T02:33:11;99683.78;;;5.95;100.00
58243;BME280;50118;53.232;8.252;2023-03-13T02:35:38;99679.31;;;5.95;100.00
58243;BME280;50118;53.232;8.252;2023-03-13T02:38:07;99674.03;;;5.95;100.00
58243;BME280;50118;53.232;8.252;2023-03-13T02:40:36;99674.59;;;5.99;100.00
58243;BME280;50118;53.232;8.252;2023-03-13T02:43:06;99659.47;;;6.01;100.00
58243;BME280;50118;53.232;8.252;2023-03-13T02:45:33;99655.00;;;6.02;100.00
58243;BME280;50118;53.232;8.252;2023-03-13T02:47:59;99653.19;;;6.02;100.00
58243;BME280;50118;53.232;8.252;2023-03-13T02:50:24;99656.22;;;6.07;100.00
58243;BME280;50118;53.232;8.252;2023-03-13T02:52:55;99639.25;;;6.10;100.00
58243;BME280;50118;53.232;8.252;2023-03-13T02:55:29;99634.25;;;6.07;100.00
58243;BME280;50118;53.232;8.252;2023-03-13T02:57:55;99621.16;;;6.15;100.00
58243;BME280;50118;53.232;8.252;2023-03-13T03:00:21;99616.00;;;6.13;100.00
58243;BME280;50118;53.232;8.252;2023-03-13T03:02:51;99609.19;;;6.11;100.00
58243;BME280;50118;53.232;8.252;2023-03-13T03:05:17;99599.59;;;6.10;100.00
58243;BME280;50118;53.232;8.252;2023-03-13T03:07:42;99599.50;;;6.02;100.00
58243;BME280;50118;53.232;8.252;2023-03-13T03:10:08;99591.28;;;6.05;100.00
58243;BME280;50118;53.232;8.252;2023-03-13T03:12:33;99585.84;;;6.06;100.00
58243;BME280;50118;53.232;8.252;2023-03-13T03:14:59;99580.38;;;6.08;100.00
58243;BME280;50118;53.232;8.252;2023-03-13T03:17:24;99569.97;;;6.06;100.00
58243;BME280;50118;53.232;8.252;2023-03-13T03:19:50;99574.13;;;6.09;100.00
58243;BME280;50118;53.232;8.252;2023-03-13T03:22:15;99566.03;;;6.20;100.00
58243;BME280;50118;53.232;8.252;2023-03-13T03:24:40;99547.50;;;6.20;100.00
58243;BME280;50118;53.232;8.252;2023-03-13T03:27:06;99537.63;;;6.22;100.00
58243;BME280;50118;53.232;8.252;2023-03-13T03:29:31;99529.50;;;6.33;100.00
58243;BME280;50118;53.232;8.252;2023-03-13T03:31:56;99522.56;;;6.23;100.00
58243;BME280;50118;53.232;8.252;2023-03-13T03:34:22;99520.06;;;6.21;100.00
58243;BME280;50118;53.232;8.252;2023-03-13T03:36:47;99513.91;;;6.30;100.00
58243;BME280;50118;53.232;8.252;2023-03-13T03:39:13;99507.09;;;6.28;100.00
58243;BME280;50118;53.232;8.252;2023-03-13T03:41:38;99499.16;;;6.28;100.00
58243;BME280;50118;53.232;8.252;2023-03-13T03:44:04;99491.31;;;6.36;100.00
58243;BME280;50118;53.232;8.252;2023-03-13T03:46:29;99488.84;;;6.34;100.00
58243;BME280;50118;53.232;8.252;2023-03-13T03:48:55;99486.56;;;6.40;100.00
58243;BME280;50118;53.232;8.252;2023-03-13T03:51:21;99474.16;;;6.40;100.00
58243;BME280;50118;53.232;8.252;2023-03-13T03:53:47;99471.00;;;6.36;100.00
58243;BME280;50118;53.232;8.252;2023-03-13T03:56:12;99463.75;;;6.39;100.00
58243;BME280;50118;53.232;8.252;2023-03-13T03:58:38;99458.16;;;6.42;100.00
58243;BME280;50118;53.232;8.252;2023-03-13T04:01:03;99450.59;;;6.47;100.00
58243;BME280;50118;53.232;8.252;2023-03-13T04:03:29;99451.97;;;6.51;100.00
58243;BME280;50118;53.232;8.252;2023-03-13T04:05:55;99440.00;;;6.47;100.00
58243;BME280;50118;53.232;8.252;2023-03-13T04:08:20;99432.78;;;6.49;100.00
58243;BME280;50118;53.232;8.252;2023-03-13T04:10:46;99418.63;;;6.58;100.00
58243;BME280;50118;53.232;8.252;2023-03-13T04:13:11;99410.84;;;6.57;100.00
58243;BME280;50118;53.232;8.252;2023-03-13T04:15:38;99405.41;;;6.58;100.00
58243;BME280;50118;53.232;8.252;2023-03-13T04:18:05;99400.63;;;6.62;100.00
58243;BME280;50118;53.232;8.252;2023-03-13T04:20:31;99386.28;;;6.64;100.00
58243;BME280;50118;53.232;8.252;2023-03-13T04:22:56;99383.31;;;6.67;100.00
58243;BME280;50118;53.232;8.252;2023-03-13T04:25:22;99382.50;;;6.67;100.00
58243;BME280;50118;53.232;8.252;2023-03-13T04:27:47;99378.50;;;6.63;100.00
58243;BME280;50118;53.232;8.252;2023-03-13T04:30:13;99357.84;;;6.66;100.00
58243;BME280;50118;53.232;8.252;2023-03-13T04:32:39;99365.50;;;6.69;100.00
58243;BME280;50118;53.232;8.252;2023-03-13T04:35:04;99359.34;;;6.69;100.00
58243;BME280;50118;53.232;8.252;2023-03-13T04:37:30;99360.94;;;6.80;100.00
58243;BME280;50118;53.232;8.252;2023-03-13T04:39:55;99355.50;;;6.81;100.00
58243;BME280;50118;53.232;8.252;2023-03-13T04:42:20;99354.97;;;6.78;100.00
58243;BME280;50118;53.232;8.252;2023-03-13T04:44:46;99346.41;;;6.84;100.00
58243;BME280;50118;53.232;8.252;2023-03-13T04:47:11;99345.78;;;6.90;100.00
58243;BME280;50118;53.232;8.252;2023-03-13T04:49:37;99344.47;;;6.94;100.00
58243;BME280;50118;53.232;8.252;2023-03-13T04:52:02;99340.19;;;6.93;100.00
58243;BME280;50118;53.232;8.252;2023-03-13T04:54:28;99331.91;;;6.96;100.00
58243;BME280;50118;53.232;8.252;2023-03-13T04:56:53;99336.22;;;6.97;100.00
58243;BME280;50118;53.232;8.252;2023-03-13T04:59:18;99314.44;;;7.03;100.00
58243;BME280;50118;53.232;8.252;2023-03-13T05:01:44;99309.81;;;7.05;100.00
58243;BME280;50118;53.232;8.252;2023-03-13T05:04:10;99310.34;;;7.17;100.00
58243;BME280;50118;53.232;8.252;2023-03-13T05:06:36;99314.81;;;7.17;100.00
58243;BME280;50118;53.232;8.252;2023-03-13T05:09:02;99297.59;;;7.13;100.00
58243;BME280;50118;53.232;8.252;2023-03-13T05:11:29;99286.69;;;7.16;100.00
58243;BME280;50118;53.232;8.252;2023-03-13T05:13:54;99279.41;;;7.18;100.00
58243;BME280;50118;53.232;8.252;2023-03-13T05:16:19;99285.88;;;7.23;100.00
58243;BME280;50118;53.232;8.252;2023-03-13T05:18:45;99268.69;;;7.27;100.00
58243;BME280;50118;53.232;8.252;2023-03-13T05:21:10;99266.22;;;7.34;100.00
58243;BME280;50118;53.232;8.252;2023-03-13T05:23:36;99255.78;;;7.33;100.00
58243;BME280;50118;53.232;8.252;2023-03-13T05:26:01;99254.28;;;7.30;100.00
58243;BME280;50118;53.232;8.252;2023-03-13T05:28:26;99256.94;;;7.30;100.00
58243;BME280;50118;53.232;8.252;2023-03-13T05:30:52;99251.31;;;7.33;100.00
58243;BME280;50118;53.232;8.252;2023-03-13T05:33:18;99251.19;;;7.43;100.00
58243;BME280;50118;53.232;8.252;2023-03-13T05:35:45;99251.69;;;7.46;100.00
58243;BME280;50118;53.232;8.252;2023-03-13T05:38:11;99254.69;;;7.52;100.00
58243;BME280;50118;53.232;8.252;2023-03-13T05:40:36;99248.22;;;7.54;100.00
58243;BME280;50118;53.232;8.252;2023-03-13T05:43:02;99241.94;;;7.55;100.00
58243;BME280;50118;53.232;8.252;2023-03-13T05:45:27;99236.97;;;7.60;100.00
58243;BME280;50118;53.232;8.252;2023-03-13T05:47:55;99232.66;;;7.59;100.00
58243;BME280;50118;53.232;8.252;2023-03-13T05:50:23;99211.63;;;7.66;100.00
58243;BME280;50118;53.232;8.252;2023-03-13T05:52:48;99209.00;;;7.74;100.00
58243;BME280;50118;53.232;8.252;2023-03-13T05:55:14;99210.34;;;7.78;100.00
58243;BME280;50118;53.232;8.252;2023-03-13T05:57:43;99203.22;;;7.87;100.00
58243;BME280;50118;53.232;8.252;2023-03-13T06:00:09;99197.06;;;7.86;100.00
58243;BME280;50118;53.232;8.252;2023-03-13T06:02:35;99183.50;;;7.90;100.00
58243;BME280;50118;53.232;8.252;2023-03-13T06:05:00;99188.16;;;7.96;100.00
58243;BME280;50118;53.232;8.252;2023-03-13T06:07:26;99181.16;;;7.95;100.00
58243;BME280;50118;53.232;8.252;2023-03-13T06:09:51;99177.69;;;8.11;100.00
58243;BME280;50118;53.232;8.252;2023-03-13T06:12:17;99169.59;;;8.04;100.00
58243;BME280;50118;53.232;8.252;2023-03-13T06:14:42;99175.22;;;8.09;100.00
58243;BME280;50118;53.232;8.252;2023-03-13T06:17:07;99176.69;;;8.12;100.00
58243;BME280;50118;53.232;8.252;2023-03-13T06:19:33;99165.91;;;8.21;100.00
58243;BME280;50118;53.232;8.252;2023-03-13T06:21:58;99169.06;;;8.25;100.00
58243;BME280;50118;53.232;8.252;2023-03-13T06:24:24;99167.56;;;8.22;100.00
58243;BME280;50118;53.232;8.252;2023-03-13T06:26:50;99169.88;;;8.26;100.00
58243;BME280;50118;53.232;8.252;2023-03-13T06:29:16;99154.25;;;8.39;100.00
58243;BME280;50118;53.232;8.252;2023-03-13T06:31:42;99162.06;;;8.49;100.00
58243;BME280;50118;53.232;8.252;2023-03-13T06:34:10;99159.25;;;8.50;100.00
58243;BME280;50118;53.232;8.252;2023-03-13T06:36:36;99151.59;;;8.55;100.00
58243;BME280;50118;53.232;8.252;2023-03-13T06:39:01;99147.59;;;8.59;100.00
58243;BME280;50118;53.232;8.252;2023-03-13T06:41:27;99149.41;;;8.67;100.00
58243;BME280;50118;53.232;8.252;2023-03-13T06:43:52;99153.19;;;8.73;100.00
58243;BME280;50118;53.232;8.252;2023-03-13T06:46:21;99147.69;;;8.83;100.00
58243;BME280;50118;53.232;8.252;2023-03-13T06:48:47;99141.84;;;8.87;100.00
58243;BME280;50118;53.232;8.252;2023-03-13T06:51:14;99147.34;;;8.86;100.00
58243;BME280;50118;53.232;8.252;2023-03-13T06:53:40;99140.66;;;8.90;100.00
58243;BME280;50118;53.232;8.252;2023-03-13T06:56:07;99140.47;;;9.00;100.00
58243;BME280;50118;53.232;8.252;2023-03-13T06:58:32;99148.44;;;9.00;100.00
58243;BME280;50118;53.232;8.252;2023-03-13T07:00:59;99142.06;;;9.09;100.00
58243;BME280;50118;53.232;8.252;2023-03-13T07:03:29;99137.72;;;9.16;100.00
58243;BME280;50118;53.232;8.252;2023-03-13T07:05:58;99130.56;;;9.16;100.00
58243;BME280;50118;53.232;8.252;2023-03-13T07:08:25;99134.69;;;9.19;100.00
58243;BME280;50118;53.232;8.252;2023-03-13T07:10:50;99128.03;;;9.23;100.00
58243;BME280;50118;53.232;8.252;2023-03-13T07:13:17;99138.50;;;9.25;100.00
58243;BME280;50118;53.232;8.252;2023-03-13T07:15:46;99132.47;;;9.31;100.00
58243;BME280;50118;53.232;8.252;2023-03-13T07:18:12;99122.97;;;9.37;100.00
58243;BME280;50118;53.232;8.252;2023-03-13T07:20:38;99135.13;;;9.31;100.00
58243;BME280;50118;53.232;8.252;2023-03-13T07:23:03;99128.28;;;9.37;100.00
58243;BME280;50118;53.232;8.252;2023-03-13T07:25:29;99125.25;;;9.40;100.00
58243;BME280;50118;53.232;8.252;2023-03-13T07:27:54;99125.09;;;9.41;100.00
58243;BME280;50118;53.232;8.252;2023-03-13T07:30:21;99139.13;;;9.50;100.00
58243;BME280;50118;53.232;8.252;2023-03-13T07:32:46;99140.81;;;9.51;100.00
58243;BME280;50118;53.232;8.252;2023-03-13T07:35:12;99129.81;;;9.54;100.00
58243;BME280;50118;53.232;8.252;2023-03-13T07:37:37;99131.34;;;9.71;100.00
58243;BME280;50118;53.232;8.252;2023-03-13T07:40:03;99125.91;;;9.65;100.00
58243;BME280;50118;53.232;8.252;2023-03-13T07:42:29;99121.72;;;9.70;100.00
58243;BME280;50118;53.232;8.252;2023-03-13T07:44:54;99128.97;;;9.77;100.00
58243;BME280;50118;53.232;8.252;2023-03-13T07:47:20;99131.56;;;9.85;100.00
58243;BME280;50118;53.232;8.252;2023-03-13T07:49:45;99134.03;;;9.86;100.00
58243;BME280;50118;53.232;8.252;2023-03-13T07:52:11;99129.53;;;9.87;100.00
58243;BME280;50118;53.232;8.252;2023-03-13T07:54:36;99123.22;;;9.88;100.00
58243;BME280;50118;53.232;8.252;2023-03-13T07:57:02;99120.69;;;9.95;100.00
58243;BME280;50118;53.232;8.252;2023-03-13T07:59:28;99121.56;;;9.87;100.00
58243;BME280;50118;53.232;8.252;2023-03-13T08:01:53;99103.59;;;9.89;100.00
58243;BME280;50118;53.232;8.252;2023-03-13T08:04:19;99115.91;;;9.90;100.00
58243;BME280;50118;53.232;8.252;2023-03-13T08:06:44;99124.16;;;9.95;100.00
58243;BME280;50118;53.232;8.252;2023-03-13T08:09:10;99116.53;;;9.92;100.00
58243;BME280;50118;53.232;8.252;2023-03-13T08:11:37;99118.47;;;9.98;100.00
58243;BME280;50118;53.232;8.252;2023-03-13T08:14:04;99105.34;;;9.97;100.00
58243;BME280;50118;53.232;8.252;2023-03-13T08:16:31;99121.59;;;10.02;100.00
58243;BME280;50118;53.232;8.252;2023-03-13T08:18:59;99120.78;;;10.01;100.00
58243;BME280;50118;53.232;8.252;2023-03-13T08:21:29;99124.25;;;10.02;100.00
58243;BME280;50118;53.232;8.252;2023-03-13T08:23:57;99121.44;;;10.03;100.00
58243;BME280;50118;53.232;8.252;2023-03-13T08:26:25;99118.03;;;10.09;100.00
58243;BME280;50118;53.232;8.252;2023-03-13T08:28:53;99116.75;;;10.05;100.00
58243;BME280;50118;53.232;8.252;2023-03-13T08:31:25;99110.69;;;10.12;100.00
58243;BME280;50118;53.232;8.252;2023-03-13T08:33:51;99094.06;;;10.09;100.00
58243;BME280;50118;53.232;8.252;2023-03-13T08:36:30;99110.44;;;10.06;100.00
58243;BME280;50118;53.232;8.252;2023-03-13T08:38:58;99107.47;;;10.16;100.00
58243;BME280;50118;53.232;8.252;2023-03-13T08:41:26;99104.38;;;10.27;100.00
58243;BME280;50118;53.232;8.252;2023-03-13T08:43:53;99098.88;;;10.29;100.00
58243;BME280;50118;53.232;8.252;2023-03-13T08:46:19;99102.53;;;10.28;100.00
58243;BME280;50118;53.232;8.252;2023-03-13T08:48:51;99093.91;;;10.26;100.00
58243;BME280;50118;53.232;8.252;2023-03-13T08:51:18;99090.44;;;10.25;100.00
58243;BME280;50118;53.232;8.252;2023-03-13T08:53:44;99098.81;;;10.37;100.00
58243;BME280;50118;53.232;8.252;2023-03-13T08:56:12;99113.13;;;10.36;100.00
58243;BME280;50118;53.232;8.252;2023-03-13T08:58:37;99103.56;;;10.42;100.00
58243;BME280;50118;53.232;8.252;2023-03-13T09:01:05;99096.44;;;10.42;100.00
58243;BME280;50118;53.232;8.252;2023-03-13T09:03:31;99108.06;;;10.41;100.00
58243;BME280;50118;53.232;8.252;2023-03-13T09:05:58;99111.66;;;10.49;100.00
58243;BME280;50118;53.232;8.252;2023-03-13T09:08:24;99112.66;;;10.48;100.00
58243;BME280;50118;53.232;8.252;2023-03-13T09:11:16;99116.06;;;10.41;100.00
58243;BME280;50118;53.232;8.252;2023-03-13T09:13:47;99112.03;;;10.45;100.00
58243;BME280;50118;53.232;8.252;2023-03-13T09:16:15;99108.88;;;10.42;100.00
58243;BME280;50118;53.232;8.252;2023-03-13T09:18:41;99115.69;;;10.44;100.00
58243;BME280;50118;53.232;8.252;2023-03-13T09:21:09;99125.72;;;10.42;100.00
58243;BME280;50118;53.232;8.252;2023-03-13T09:23:34;99129.38;;;10.41;100.00
58243;BME280;50118;53.232;8.252;2023-03-13T09:26:00;99136.06;;;10.37;100.00
58243;BME280;50118;53.232;8.252;2023-03-13T09:28:26;99135.31;;;10.43;100.00
58243;BME280;50118;53.232;8.252;2023-03-13T09:30:52;99135.16;;;10.60;100.00
58243;BME280;50118;53.232;8.252;2023-03-13T09:33:19;99125.03;;;10.70;100.00
58243;BME280;50118;53.232;8.252;2023-03-13T09:35:45;99113.22;;;10.73;100.00
58243;BME280;50118;53.232;8.252;2023-03-13T09:38:18;99118.22;;;10.82;100.00
58243;BME280;50118;53.232;8.252;2023-03-13T09:40:47;99120.88;;;10.97;100.00
58243;BME280;50118;53.232;8.252;2023-03-13T09:45:53;99113.22;;;11.09;100.00
58243;BME280;50118;53.232;8.252;2023-03-13T09:48:30;99106.09;;;11.16;100.00
58243;BME280;50118;53.232;8.252;2023-03-13T09:51:20;99093.41;;;11.18;100.00
58243;BME280;50118;53.232;8.252;2023-03-13T09:53:52;99100.59;;;11.18;100.00
58243;BME280;50118;53.232;8.252;2023-03-13T09:56:29;99099.59;;;11.19;100.00
58243;BME280;50118;53.232;8.252;2023-03-13T09:59:05;99110.94;;;11.28;100.00
58243;BME280;50118;53.232;8.252;2023-03-13T10:01:37;99094.19;;;11.34;100.00
58243;BME280;50118;53.232;8.252;2023-03-13T10:04:37;99107.19;;;11.44;100.00
58243;BME280;50118;53.232;8.252;2023-03-13T10:07:09;99111.91;;;11.42;100.00
58243;BME280;50118;53.232;8.252;2023-03-13T10:09:36;99092.41;;;11.41;100.00
58243;BME280;50118;53.232;8.252;2023-03-13T10:14:44;99100.53;;;11.54;100.00
58243;BME280;50118;53.232;8.252;2023-03-13T10:19:42;99104.19;;;11.96;100.00
58243;BME280;50118;53.232;8.252;2023-03-13T10:22:17;99097.94;;;12.11;100.00
58243;BME280;50118;53.232;8.252;2023-03-13T10:24:54;99088.75;;;12.20;100.00
58243;BME280;50118;53.232;8.252;2023-03-13T10:27:21;99088.75;;;12.20;100.00
58243;BME280;50118;53.232;8.252;2023-03-13T10:29:46;99096.50;;;12.15;100.00
58243;BME280;50118;53.232;8.252;2023-03-13T10:32:15;99089.94;;;12.11;100.00
58243;BME280;50118;53.232;8.252;2023-03-13T10:34:55;99079.19;;;12.39;100.00
58243;BME280;50118;53.232;8.252;2023-03-13T10:37:27;99075.63;;;12.25;100.00
58243;BME280;50118;53.232;8.252;2023-03-13T10:39:52;99078.91;;;12.27;100.00
58243;BME280;50118;53.232;8.252;2023-03-13T10:42:31;99084.59;;;12.11;100.00
58243;BME280;50118;53.232;8.252;2023-03-13T10:44:59;99071.88;;;12.13;100.00
58243;BME280;50118;53.232;8.252;2023-03-13T10:47:25;99079.88;;;12.13;100.00
58243;BME280;50118;53.232;8.252;2023-03-13T10:49:56;99085.72;;;12.30;100.00
58243;BME280;50118;53.232;8.252;2023-03-13T10:52:41;99084.94;;;12.43;100.00
58243;BME280;50118;53.232;8.252;2023-03-13T10:55:19;99088.50;;;12.50;100.00
58243;BME280;50118;53.232;8.252;2023-03-13T10:57:59;99074.72;;;12.53;100.00
58243;BME280;50118;53.232;8.252;2023-03-13T11:00:33;99086.03;;;12.48;100.00
58243;BME280;50118;53.232;8.252;2023-03-13T11:03:01;99087.53;;;12.64;100.00
58243;BME280;50118;53.232;8.252;2023-03-13T11:07:53;99095.84;;;12.89;100.00
58243;BME280;50118;53.232;8.252;2023-03-13T11:10:24;99091.81;;;13.14;100.00
58243;BME280;50118;53.232;8.252;2023-03-13T11:12:54;99096.50;;;12.98;100.00
58243;BME280;50118;53.232;8.252;2023-03-13T11:15:45;99087.84;;;12.89;100.00
58243;BME280;50118;53.232;8.252;2023-03-13T11:18:36;99093.00;;;12.91;100.00
58243;BME280;50118;53.232;8.252;2023-03-13T11:21:05;99087.44;;;12.93;100.00
58243;BME280;50118;53.232;8.252;2023-03-13T11:23:39;99086.59;;;12.92;100.00
58243;BME280;50118;53.232;8.252;2023-03-13T11:31:31;99087.50;;;13.26;100.00
58243;BME280;50118;53.232;8.252;2023-03-13T11:34:19;99068.19;;;13.31;100.00
58243;BME280;50118;53.232;8.252;2023-03-13T11:37:01;99073.41;;;13.52;100.00
58243;BME280;50118;53.232;8.252;2023-03-13T11:50:34;99053.31;;;14.35;100.00
58243;BME280;50118;53.232;8.252;2023-03-13T11:53:28;99050.41;;;14.43;100.00
58243;BME280;50118;53.232;8.252;2023-03-13T12:01:24;99033.91;;;14.46;100.00
58243;BME280;50118;53.232;8.252;2023-03-13T12:04:24;99032.25;;;14.45;100.00
58243;BME280;50118;53.232;8.252;2023-03-13T12:07:15;99008.31;;;14.50;98.27
58243;BME280;50118;53.232;8.252;2023-03-13T12:09:52;99031.56;;;14.70;100.00
58243;BME280;50118;53.232;8.252;2023-03-13T12:12:29;99023.28;;;14.78;98.44
58243;BME280;50118;53.232;8.252;2023-03-13T12:14:59;99029.19;;;14.93;96.41
58243;BME280;50118;53.232;8.252;2023-03-13T12:17:36;99019.38;;;14.74;95.39
58243;BME280;50118;53.232;8.252;2023-03-13T12:20:19;99023.78;;;14.62;96.29
58243;BME280;50118;53.232;8.252;2023-03-13T12:31:28;99006.50;;;14.89;92.25
58243;BME280;50118;53.232;8.252;2023-03-13T12:34:08;98987.91;;;14.63;90.37
58243;BME280;50118;53.232;8.252;2023-03-13T12:36:40;98992.81;;;14.66;93.46
58243;BME280;50118;53.232;8.252;2023-03-13T12:39:22;98964.75;;;14.75;88.81
58243;BME280;50118;53.232;8.252;2023-03-13T12:42:16;98962.94;;;15.01;89.38
58243;BME280;50118;53.232;8.252;2023-03-13T12:44:45;98955.81;;;15.13;92.39
58243;BME280;50118;53.232;8.252;2023-03-13T12:47:31;98938.22;;;15.24;88.17
58243;BME280;50118;53.232;8.252;2023-03-13T12:58:20;98952.22;;;15.51;87.88
58243;BME280;50118;53.232;8.252;2023-03-13T13:00:49;98939.47;;;15.21;85.09
58243;BME280;50118;53.232;8.252;2023-03-13T13:06:08;98925.03;;;15.22;84.81
58243;BME280;50118;53.232;8.252;2023-03-13T13:08:42;98907.59;;;15.31;83.81
58243;BME280;50118;53.232;8.252;2023-03-13T13:19:44;98911.41;;;15.61;84.26
58243;BME280;50118;53.232;8.252;2023-03-13T13:32:46;98906.41;;;15.46;78.36
58243;BME280;50118;53.232;8.252;2023-03-13T13:37:40;98888.34;;;15.60;74.81
58243;BME280;50118;53.232;8.252;2023-03-13T13:40:20;98899.63;;;15.87;72.13
58243;BME280;50118;53.232;8.252;2023-03-13T13:42:51;98882.44;;;15.88;74.54
58243;BME280;50118;53.232;8.252;2023-03-13T13:47:52;98871.09;;;16.04;74.38
58243;BME280;50118;53.232;8.252;2023-03-13T13:50:36;98860.22;;;15.62;71.53
58243;BME280;50118;53.232;8.252;2023-03-13T13:53:32;98879.13;;;15.49;73.73
58243;BME280;50118;53.232;8.252;2023-03-13T14:01:35;98859.34;;;15.68;74.83
58243;BME280;50118;53.232;8.252;2023-03-13T14:04:18;98871.69;;;15.69;75.63
58243;BME280;50118;53.232;8.252;2023-03-13T14:06:50;98857.16;;;15.40;74.96
58243;BME280;50118;53.232;8.252;2023-03-13T14:11:54;98855.50;;;15.21;76.48
58243;BME280;50118;53.232;8.252;2023-03-13T14:14:21;98859.00;;;15.21;76.43
58243;BME280;50118;53.232;8.252;2023-03-13T14:16:54;98855.59;;;15.32;75.86
58243;BME280;50118;53.232;8.252;2023-03-13T14:19:43;98825.91;;;15.46;75.49
58243;BME280;50118;53.232;8.252;2023-03-13T14:22:10;98837.41;;;15.35;75.41
58243;BME280;50118;53.232;8.252;2023-03-13T14:24:36;98843.16;;;15.38;74.82
58243;BME280;50118;53.232;8.252;2023-03-13T14:27:17;98847.34;;;15.34;75.38
58243;BME280;50118;53.232;8.252;2023-03-13T14:30:03;98840.53;;;15.31;76.48
58243;BME280;50118;53.232;8.252;2023-03-13T14:32:30;98837.41;;;15.35;75.17
58243;BME280;50118;53.232;8.252;2023-03-13T14:34:55;98841.44;;;15.44;76.58